Time;durP1;ratioP1;P1;durP2;ratioP2;P2;SDS_P1;SDS_P2;PMS_P1;PMS_P2;Temp;Humidity;BMP_temperature;BMP_pressure;BME280_temperature;BME280_humidity;BME280_pressure;Samples;Min_cycle;Max_cycle;Signal;HPM_P1;HPM_P2
2023/01/08 00:00:44;;;;;;;4.78;2.95;;;10.00;99.90;;;;;;5034944;28;20033;-62
2023/01/08 00:03:10;;;;;;;5.07;3.17;;;10.00;99.90;;;;;;5043006;28;20079;-62
2023/01/08 00:05:36;;;;;;;6.53;3.22;;;10.00;99.90;;;;;;5043163;28;20042;-62
2023/01/08 00:08:02;;;;;;;5.78;2.97;;;10.00;99.90;;;;;;5023434;28;20059;-62
2023/01/08 00:10:27;;;;;;;5.10;3.38;;;10.00;99.90;;;;;;5040486;28;20031;-63
2023/01/08 00:12:54;;;;;;;5.53;3.00;;;10.00;99.90;;;;;;5039188;28;20067;-62
2023/01/08 00:15:20;;;;;;;4.90;3.20;;;10.00;99.90;;;;;;5045199;28;20121;-62
2023/01/08 00:17:46;;;;;;;4.35;2.85;;;10.00;99.90;;;;;;5020720;28;20115;-62
2023/01/08 00:20:11;;;;;;;6.07;3.25;;;10.00;99.90;;;;;;5045708;28;20484;-62
2023/01/08 00:22:37;;;;;;;6.22;3.30;;;10.10;99.90;;;;;;5023889;28;20044;-62
2023/01/08 00:25:03;;;;;;;4.97;3.20;;;10.00;99.90;;;;;;5022156;28;20083;-63
2023/01/08 00:27:29;;;;;;;6.60;2.83;;;10.10;99.90;;;;;;5038712;28;20033;-62
2023/01/08 00:29:54;;;;;;;6.35;3.15;;;10.10;99.90;;;;;;5044433;28;20549;-62
2023/01/08 00:32:20;;;;;;;4.90;3.30;;;10.10;99.90;;;;;;5050307;28;20048;-63
2023/01/08 00:34:47;;;;;;;6.22;3.50;;;10.00;99.90;;;;;;5020734;28;20041;-63
2023/01/08 00:37:12;;;;;;;5.57;3.53;;;10.10;99.90;;;;;;5039854;28;20041;-62
2023/01/08 00:39:38;;;;;;;6.80;3.70;;;10.00;99.90;;;;;;5021211;28;20545;-62
2023/01/08 00:42:04;;;;;;;5.25;3.40;;;10.00;99.90;;;;;;5023250;28;20072;-64
2023/01/08 00:44:29;;;;;;;5.32;3.20;;;10.00;99.90;;;;;;5031196;28;20034;-62
2023/01/08 00:46:55;;;;;;;5.85;3.20;;;10.00;99.90;;;;;;5028574;28;20115;-62
2023/01/08 00:49:21;;;;;;;5.93;3.13;;;10.00;99.90;;;;;;5050061;28;20043;-62
2023/01/08 00:51:46;;;;;;;5.88;3.30;;;10.10;99.90;;;;;;5048782;28;20487;-63
2023/01/08 00:54:12;;;;;;;4.35;3.08;;;10.10;99.90;;;;;;5019919;28;20034;-61
2023/01/08 00:56:37;;;;;;;5.22;3.47;;;10.00;99.90;;;;;;5034457;28;20104;-62
2023/01/08 00:59:03;;;;;;;7.68;3.45;;;10.00;99.90;;;;;;5042104;28;20049;-61
2023/01/08 01:01:29;;;;;;;4.28;2.58;;;10.00;99.90;;;;;;5032157;28;20037;-63
2023/01/08 01:03:54;;;;;;;5.93;2.78;;;10.00;99.90;;;;;;5038655;28;20135;-62
2023/01/08 01:06:20;;;;;;;5.40;2.33;;;9.90;99.90;;;;;;5044744;28;20451;-62
2023/01/08 01:08:46;;;;;;;3.72;2.47;;;9.90;99.90;;;;;;5037091;28;20044;-62
2023/01/08 01:11:21;;;;;;;6.00;2.10;;;9.80;99.90;;;;;;5023488;28;20119;-62
2023/01/08 01:13:48;;;;;;;5.85;1.92;;;9.70;99.90;;;;;;5040976;28;20033;-62
2023/01/08 01:16:13;;;;;;;5.00;1.50;;;9.60;99.90;;;;;;5018813;28;20087;-63
2023/01/08 01:18:39;;;;;;;5.90;1.52;;;9.50;99.90;;;;;;5041234;28;20072;-64
2023/01/08 01:21:26;;;;;;;4.85;1.73;;;9.50;99.90;;;;;;5038570;28;20500;-62
2023/01/08 01:23:57;;;;;;;6.20;1.40;;;9.30;99.90;;;;;;5037946;28;20049;-62
2023/01/08 01:26:24;;;;;;;4.70;1.30;;;9.30;99.90;;;;;;5035314;28;20071;-61
2023/01/08 01:28:52;;;;;;;5.65;1.10;;;9.20;99.90;;;;;;5049129;28;20125;-62
2023/01/08 01:31:18;;;;;;;4.88;1.38;;;9.20;99.90;;;;;;5044699;28;20480;-62
2023/01/08 01:33:45;;;;;;;9.25;1.50;;;9.10;99.90;;;;;;5031603;28;20041;-63
2023/01/08 01:36:12;;;;;;;6.53;1.40;;;9.10;99.90;;;;;;5048781;28;20037;-62
2023/01/08 01:38:37;;;;;;;4.60;1.27;;;9.00;99.90;;;;;;5038271;28;20056;-62
2023/01/08 01:41:03;;;;;;;9.57;1.70;;;8.90;99.90;;;;;;5044204;28;20037;-61
2023/01/08 01:43:38;;;;;;;7.00;1.70;;;9.00;99.90;;;;;;5029377;28;20116;-62
2023/01/08 01:46:32;;;;;;;6.78;1.55;;;8.90;99.90;;;;;;5040155;28;20446;-62
2023/01/08 01:49:03;;;;;;;11.25;2.10;;;8.90;99.90;;;;;;5039749;28;20055;-64
2023/01/08 01:51:31;;;;;;;9.52;1.85;;;8.90;99.90;;;;;;5030153;28;20472;-62
2023/01/08 01:53:58;;;;;;;5.90;1.50;;;8.80;99.90;;;;;;5038591;28;20041;-62
2023/01/08 01:56:25;;;;;;;9.85;1.90;;;8.80;99.90;;;;;;5040278;28;20033;-64
2023/01/08 01:58:51;;;;;;;9.95;2.10;;;8.80;99.90;;;;;;5029077;28;20073;-62
2023/01/08 02:01:18;;;;;;;9.57;1.88;;;8.70;99.90;;;;;;5045556;28;20432;-61
2023/01/08 02:03:43;;;;;;;9.45;1.75;;;8.80;99.90;;;;;;5052193;28;20041;-61
2023/01/08 02:06:25;;;;;;;11.85;1.90;;;8.70;99.90;;;;;;5042969;28;20036;-61
2023/01/08 02:09:28;;;;;;;9.13;1.77;;;8.70;99.90;;;;;;5024163;28;20423;-62
2023/01/08 02:12:24;;;;;;;8.00;1.60;;;8.60;99.90;;;;;;5045735;28;20086;-62
2023/01/08 02:15:07;;;;;;;9.50;1.73;;;8.70;99.90;;;;;;5040655;28;20124;-61
2023/01/08 02:17:42;;;;;;;13.10;1.95;;;8.60;99.90;;;;;;5032826;28;20033;-64
2023/01/08 02:20:31;;;;;;;8.30;1.88;;;8.60;99.90;;;;;;5036619;28;20112;-62
2023/01/08 02:23:20;;;;;;;12.15;2.13;;;8.60;99.90;;;;;;5045695;28;20045;-64
2023/01/08 02:26:20;;;;;;;6.40;1.85;;;8.60;99.90;;;;;;5018450;28;20488;-61
2023/01/08 02:28:48;;;;;;;6.55;2.22;;;8.60;99.90;;;;;;5012677;28;20037;-61
2023/01/08 02:31:15;;;;;;;5.40;1.60;;;8.60;99.90;;;;;;5048339;28;20488;-62
2023/01/08 02:33:41;;;;;;;11.30;1.83;;;8.60;99.90;;;;;;5049005;28;20131;-61
2023/01/08 02:36:37;;;;;;;7.70;1.90;;;8.60;99.90;;;;;;5051257;28;20112;-61
2023/01/08 02:39:43;;;;;;;7.60;1.75;;;8.60;99.90;;;;;;5029612;28;20044;-61
2023/01/08 02:42:14;;;;;;;11.02;1.88;;;8.50;99.90;;;;;;5023318;28;20102;-62
2023/01/08 02:45:21;;;;;;;8.80;1.80;;;8.60;99.90;;;;;;5027037;28;20037;-62
2023/01/08 02:48:09;;;;;;;7.07;1.80;;;8.60;99.90;;;;;;5034064;28;20044;-61
2023/01/08 02:50:47;;;;;;;10.98;1.92;;;8.50;99.90;;;;;;5028507;28;20082;-62
2023/01/08 02:53:17;;;;;;;5.80;1.48;;;8.60;99.90;;;;;;5045316;28;20377;-62
2023/01/08 02:55:50;;;;;;;7.88;1.60;;;8.50;99.90;;;;;;5043929;28;20029;-62
2023/01/08 02:58:17;;;;;;;12.27;2.38;;;8.50;99.90;;;;;;5030152;28;20094;-63
2023/01/08 03:00:44;;;;;;;8.70;1.95;;;8.50;99.90;;;;;;5039857;28;20045;-62
2023/01/08 03:03:15;;;;;;;5.38;2.00;;;8.50;99.90;;;;;;5041103;28;20614;-61
2023/01/08 03:05:44;;;;;;;5.20;1.80;;;8.50;99.90;;;;;;5050573;28;20103;-61
2023/01/08 03:08:11;;;;;;;7.22;2.42;;;8.50;99.90;;;;;;5046764;28;20037;-61
2023/01/08 03:10:39;;;;;;;6.50;2.30;;;8.50;99.90;;;;;;5030500;28;20446;-61
2023/01/08 03:13:13;;;;;;;8.65;2.85;;;8.50;99.90;;;;;;5051288;28;20088;-62
2023/01/08 03:16:02;;;;;;;10.15;2.92;;;8.50;99.90;;;;;;5043307;28;20048;-62
2023/01/08 03:18:34;;;;;;;6.13;3.20;;;8.50;99.90;;;;;;5046238;28;20036;-61
2023/01/08 03:21:02;;;;;;;6.10;3.53;;;8.60;99.90;;;;;;5047025;28;20041;-62
2023/01/08 03:23:32;;;;;;;8.25;3.72;;;8.60;99.90;;;;;;5042943;28;20036;-62
2023/01/08 03:25:59;;;;;;;7.53;3.97;;;8.70;99.90;;;;;;5030290;28;20041;-62
2023/01/08 03:28:29;;;;;;;6.28;3.90;;;8.70;99.90;;;;;;5042321;28;20112;-62
2023/01/08 03:30:57;;;;;;;7.40;4.00;;;8.80;99.90;;;;;;5049980;28;20041;-64
2023/01/08 03:33:24;;;;;;;8.30;4.30;;;8.80;99.90;;;;;;5050620;28;20065;-62
2023/01/08 03:35:52;;;;;;;8.40;3.60;;;8.90;99.90;;;;;;5033912;28;20070;-62
2023/01/08 03:38:24;;;;;;;6.85;3.85;;;8.90;99.90;;;;;;5038412;28;20041;-62
2023/01/08 03:40:55;;;;;;;8.68;3.80;;;9.00;99.90;;;;;;5024209;28;20029;-62
2023/01/08 03:43:20;;;;;;;7.22;3.88;;;9.00;99.90;;;;;;5032933;28;20052;-61
2023/01/08 03:45:52;;;;;;;6.93;3.15;;;9.00;99.90;;;;;;5024792;28;20037;-61
2023/01/08 03:48:19;;;;;;;5.55;3.33;;;9.00;99.90;;;;;;5023917;28;20040;-62
2023/01/08 03:50:45;;;;;;;5.85;3.22;;;9.10;99.90;;;;;;5042203;28;20399;-61
2023/01/08 03:53:11;;;;;;;5.30;2.83;;;9.10;99.90;;;;;;5039554;28;20044;-62
2023/01/08 03:55:36;;;;;;;6.85;3.00;;;9.10;99.90;;;;;;5042157;28;20567;-62
2023/01/08 03:58:02;;;;;;;6.15;2.70;;;9.20;99.90;;;;;;5030605;28;20073;-62
2023/01/08 04:00:28;;;;;;;6.60;2.42;;;9.10;99.90;;;;;;5042221;28;20034;-63
2023/01/08 04:02:53;;;;;;;4.10;2.30;;;9.10;99.90;;;;;;5022145;28;20087;-62
2023/01/08 04:05:19;;;;;;;3.50;2.22;;;9.10;99.90;;;;;;5037604;28;20387;-61
2023/01/08 04:07:44;;;;;;;5.00;2.42;;;9.10;99.90;;;;;;5042122;28;20044;-62
2023/01/08 04:10:10;;;;;;;3.65;2.10;;;9.00;99.90;;;;;;5033188;28;20032;-62
2023/01/08 04:12:35;;;;;;;5.88;2.30;;;9.00;99.90;;;;;;5038811;28;20036;-61
2023/01/08 04:15:01;;;;;;;4.28;1.98;;;9.00;99.90;;;;;;5049222;28;20557;-61
2023/01/08 04:17:27;;;;;;;5.35;2.20;;;9.00;99.90;;;;;;5042317;28;20029;-62
2023/01/08 04:19:53;;;;;;;5.93;2.40;;;9.00;99.90;;;;;;5037247;28;20559;-63
2023/01/08 04:22:18;;;;;;;7.03;2.10;;;9.00;99.90;;;;;;5040230;28;20035;-63
2023/01/08 04:24:44;;;;;;;5.40;2.47;;;9.00;99.90;;;;;;5048733;28;20037;-61
2023/01/08 04:27:09;;;;;;;4.35;2.17;;;9.00;99.90;;;;;;5041965;28;20032;-61
2023/01/08 04:29:35;;;;;;;6.75;2.25;;;9.00;99.90;;;;;;5039801;28;20064;-62
2023/01/08 04:32:01;;;;;;;3.65;2.03;;;8.90;99.90;;;;;;5016646;28;20233;-63
2023/01/08 04:34:26;;;;;;;4.03;2.10;;;8.90;99.90;;;;;;5044309;28;20032;-63
2023/01/08 04:36:52;;;;;;;6.78;2.60;;;8.90;99.90;;;;;;5031052;28;20626;-63
2023/01/08 04:39:17;;;;;;;4.38;2.05;;;8.90;99.90;;;;;;5025279;28;20044;-63
2023/01/08 04:41:43;;;;;;;5.07;2.28;;;8.90;99.90;;;;;;5046099;28;20036;-63
2023/01/08 04:44:09;;;;;;;4.60;2.05;;;8.90;99.90;;;;;;5041412;28;20037;-64
2023/01/08 04:46:35;;;;;;;4.70;2.53;;;8.90;99.90;;;;;;5023924;28;20134;-62
2023/01/08 04:49:00;;;;;;;5.85;2.30;;;8.90;99.90;;;;;;5039777;28;20090;-62
2023/01/08 04:51:26;;;;;;;5.65;2.28;;;8.90;99.90;;;;;;5049255;28;20086;-63
2023/01/08 04:53:52;;;;;;;6.72;2.53;;;8.90;99.90;;;;;;5018948;28;20047;-63
2023/01/08 04:56:17;;;;;;;4.82;2.20;;;8.90;99.90;;;;;;5042579;28;20033;-63
2023/01/08 04:58:43;;;;;;;3.92;2.20;;;8.90;99.90;;;;;;5034088;28;20086;-63
2023/01/08 05:01:10;;;;;;;5.68;2.33;;;8.90;99.90;;;;;;5040706;28;20041;-61
2023/01/08 05:03:36;;;;;;;5.03;2.35;;;8.80;99.90;;;;;;5048735;28;20048;-62
2023/01/08 05:06:02;;;;;;;5.47;2.78;;;8.80;99.90;;;;;;5038046;28;20037;-63
2023/01/08 05:08:27;;;;;;;6.35;2.60;;;8.80;99.90;;;;;;5042826;28;20060;-63
2023/01/08 05:10:53;;;;;;;5.22;2.80;;;8.80;99.90;;;;;;5036720;28;20082;-61
2023/01/08 05:13:19;;;;;;;6.93;2.85;;;8.80;99.90;;;;;;5049224;28;20067;-62
2023/01/08 05:15:44;;;;;;;5.82;3.00;;;8.80;99.90;;;;;;5035266;28;20033;-64
2023/01/08 05:18:10;;;;;;;5.50;3.20;;;8.80;99.90;;;;;;5038827;28;20033;-63
2023/01/08 05:20:35;;;;;;;8.27;2.85;;;8.70;99.90;;;;;;5043135;28;20037;-62
2023/01/08 05:23:01;;;;;;;7.30;3.70;;;8.70;99.90;;;;;;5027587;28;20090;-62
2023/01/08 05:25:27;;;;;;;6.85;3.05;;;8.70;99.90;;;;;;5039646;28;20480;-62
2023/01/08 05:27:52;;;;;;;6.75;2.78;;;8.70;99.90;;;;;;5045632;28;20033;-63
2023/01/08 05:30:19;;;;;;;8.73;3.55;;;8.70;99.90;;;;;;5031801;28;20045;-63
2023/01/08 05:32:44;;;;;;;7.50;3.25;;;8.70;99.90;;;;;;5023780;28;20041;-62
2023/01/08 05:35:10;;;;;;;7.25;3.25;;;8.70;99.90;;;;;;5049463;28;20403;-63
2023/01/08 05:37:36;;;;;;;6.10;3.10;;;8.70;99.90;;;;;;5045894;28;20033;-63
2023/01/08 05:40:02;;;;;;;6.70;3.35;;;8.70;99.90;;;;;;5046118;28;20037;-63
2023/01/08 05:42:28;;;;;;;5.75;3.05;;;8.70;99.90;;;;;;5031631;28;20044;-63
2023/01/08 05:44:53;;;;;;;6.60;2.80;;;8.70;99.90;;;;;;5049513;28;20406;-63
2023/01/08 05:47:19;;;;;;;8.98;3.63;;;8.70;99.90;;;;;;5018603;28;20469;-63
2023/01/08 05:49:44;;;;;;;6.15;2.83;;;8.70;99.90;;;;;;5049243;28;20118;-63
2023/01/08 05:52:10;;;;;;;6.30;2.70;;;8.60;99.90;;;;;;5021493;28;20041;-63
2023/01/08 05:54:36;;;;;;;10.70;3.30;;;8.60;99.90;;;;;;5049309;28;20035;-63
2023/01/08 05:57:01;;;;;;;10.93;3.05;;;8.60;99.90;;;;;;5045759;28;20045;-63
2023/01/08 05:59:27;;;;;;;6.22;2.20;;;8.60;99.90;;;;;;5024295;28;20033;-61
2023/01/08 06:01:52;;;;;;;6.38;2.42;;;8.60;99.90;;;;;;5040335;28;20033;-63
2023/01/08 06:04:18;;;;;;;8.05;2.33;;;8.60;99.90;;;;;;5040848;28;20040;-62
2023/01/08 06:06:43;;;;;;;5.35;1.98;;;8.60;99.90;;;;;;5044239;28;20034;-61
2023/01/08 06:09:09;;;;;;;8.52;2.00;;;8.50;99.90;;;;;;5043540;28;20033;-61
2023/01/08 06:11:35;;;;;;;4.30;2.03;;;8.50;99.90;;;;;;5041165;28;20044;-63
2023/01/08 06:14:00;;;;;;;7.07;2.00;;;8.60;99.90;;;;;;5041223;28;20044;-63
2023/01/08 06:16:26;;;;;;;6.35;2.05;;;8.60;99.90;;;;;;5028239;28;20120;-63
2023/01/08 06:18:51;;;;;;;8.48;2.17;;;8.50;99.90;;;;;;5018149;28;20040;-62
2023/01/08 06:21:17;;;;;;;7.35;1.77;;;8.50;99.90;;;;;;5044718;28;20048;-61
2023/01/08 06:23:43;;;;;;;4.20;1.60;;;8.50;99.90;;;;;;5038285;28;20127;-61
2023/01/08 06:26:08;;;;;;;5.82;1.73;;;8.50;99.90;;;;;;5051583;28;20025;-61
2023/01/08 06:28:34;;;;;;;5.28;2.00;;;8.50;99.90;;;;;;5044922;28;20038;-62
2023/01/08 06:31:01;;;;;;;4.22;2.00;;;8.50;99.90;;;;;;5037209;28;20033;-65
2023/01/08 06:33:27;;;;;;;5.63;1.48;;;8.40;99.90;;;;;;5045595;28;20053;-61
2023/01/08 06:35:52;;;;;;;6.45;1.98;;;8.40;99.90;;;;;;5033977;28;20144;-63
2023/01/08 06:38:18;;;;;;;7.25;1.80;;;8.50;99.90;;;;;;5051655;28;20072;-63
2023/01/08 06:40:45;;;;;;;5.68;1.63;;;8.40;99.90;;;;;;5020101;28;20403;-61
2023/01/08 06:43:10;;;;;;;6.07;1.80;;;8.50;99.90;;;;;;5037948;28;20033;-63
2023/01/08 06:45:36;;;;;;;5.15;1.63;;;8.50;99.90;;;;;;5044689;28;20446;-63
2023/01/08 06:48:04;;;;;;;4.80;1.48;;;8.50;99.90;;;;;;5025194;28;20527;-62
2023/01/08 06:50:31;;;;;;;7.30;2.15;;;8.40;99.90;;;;;;5044440;28;20045;-61
2023/01/08 06:52:56;;;;;;;5.75;1.88;;;8.40;99.90;;;;;;5034148;28;20398;-64
2023/01/08 06:55:24;;;;;;;6.45;2.00;;;8.40;99.90;;;;;;5033274;28;20037;-61
2023/01/08 06:57:57;;;;;;;7.38;1.70;;;8.40;99.90;;;;;;5046021;28;20037;-62
2023/01/08 07:00:24;;;;;;;6.18;1.77;;;8.40;99.90;;;;;;5039623;28;20125;-63
2023/01/08 07:02:51;;;;;;;7.35;1.80;;;8.40;99.90;;;;;;5040717;28;20503;-61
2023/01/08 07:05:17;;;;;;;6.20;1.55;;;8.40;99.90;;;;;;5041288;28;20115;-62
2023/01/08 07:07:42;;;;;;;6.03;1.85;;;8.40;99.90;;;;;;5035779;28;20036;-61
2023/01/08 07:10:08;;;;;;;8.55;1.92;;;8.40;99.90;;;;;;5045497;28;20452;-63
2023/01/08 07:12:34;;;;;;;6.45;2.00;;;8.40;99.90;;;;;;5049651;28;20526;-61
2023/01/08 07:15:00;;;;;;;5.75;1.77;;;8.40;99.90;;;;;;5016839;28;20119;-62
2023/01/08 07:17:26;;;;;;;6.40;2.05;;;8.40;99.90;;;;;;5039631;28;20044;-62
2023/01/08 07:19:51;;;;;;;8.98;2.03;;;8.30;99.90;;;;;;5040192;28;20028;-62
2023/01/08 07:22:17;;;;;;;6.35;1.92;;;8.40;99.90;;;;;;5051475;28;20064;-66
2023/01/08 07:24:43;;;;;;;5.38;1.80;;;8.30;99.90;;;;;;5042848;28;20082;-62
2023/01/08 07:27:08;;;;;;;7.03;2.20;;;8.30;99.90;;;;;;5040232;28;20049;-62
2023/01/08 07:29:34;;;;;;;6.30;1.83;;;8.30;99.90;;;;;;5042457;28;20067;-62
2023/01/08 07:31:59;;;;;;;7.72;2.22;;;8.30;99.90;;;;;;5036964;28;20037;-63
2023/01/08 07:34:25;;;;;;;8.60;2.30;;;8.30;99.90;;;;;;5044046;28;20123;-61
2023/01/08 07:36:51;;;;;;;6.47;2.00;;;8.20;99.90;;;;;;5019865;28;20492;-62
2023/01/08 07:39:19;;;;;;;7.45;2.47;;;8.20;99.90;;;;;;5049666;28;20391;-62
2023/01/08 07:41:45;;;;;;;6.65;1.90;;;8.10;99.90;;;;;;5038349;28;20048;-62
2023/01/08 07:44:11;;;;;;;5.93;2.40;;;8.10;99.90;;;;;;5046988;28;20422;-62
2023/01/08 07:46:36;;;;;;;7.97;2.25;;;8.00;99.90;;;;;;5043688;28;20038;-62
2023/01/08 07:49:02;;;;;;;5.57;2.00;;;8.00;99.90;;;;;;5050688;28;20029;-63
2023/01/08 07:51:28;;;;;;;5.03;2.13;;;8.00;99.90;;;;;;5049975;28;20112;-62
2023/01/08 07:53:55;;;;;;;5.32;1.90;;;7.90;99.90;;;;;;5048402;28;20442;-64
2023/01/08 07:56:21;;;;;;;6.40;1.88;;;7.90;99.90;;;;;;5032668;28;20431;-62
2023/01/08 07:58:47;;;;;;;7.07;2.53;;;7.90;99.90;;;;;;5022584;28;20056;-62
2023/01/08 08:01:13;;;;;;;8.27;2.20;;;7.90;99.90;;;;;;5045257;28;20547;-62
2023/01/08 08:03:39;;;;;;;3.38;1.77;;;7.80;99.90;;;;;;5044056;28;20064;-62
2023/01/08 08:06:05;;;;;;;6.15;1.90;;;7.80;99.90;;;;;;5046377;28;20035;-61
2023/01/08 08:08:31;;;;;;;5.38;2.15;;;7.80;99.90;;;;;;5026215;28;20492;-63
2023/01/08 08:10:57;;;;;;;9.75;2.20;;;7.80;99.90;;;;;;5048567;28;20044;-63
2023/01/08 08:13:22;;;;;;;7.43;2.17;;;7.80;99.90;;;;;;5050206;28;20488;-62
2023/01/08 08:15:48;;;;;;;6.07;1.70;;;7.80;99.90;;;;;;5022245;28;20113;-62
2023/01/08 08:18:13;;;;;;;6.72;2.15;;;7.70;99.90;;;;;;5028614;28;20033;-62
2023/01/08 08:20:39;;;;;;;9.23;2.08;;;7.70;99.90;;;;;;5034578;28;20091;-62
2023/01/08 08:23:07;;;;;;;9.90;2.47;;;7.70;99.90;;;;;;5038128;28;20037;-61
2023/01/08 08:25:33;;;;;;;11.35;2.25;;;7.70;99.90;;;;;;5016841;28;20045;-61
2023/01/08 08:28:00;;;;;;;6.68;1.83;;;7.70;99.90;;;;;;5022328;28;20036;-65
2023/01/08 08:30:27;;;;;;;7.65;2.10;;;7.70;99.90;;;;;;5018758;28;20037;-61
2023/01/08 08:32:53;;;;;;;8.23;2.50;;;7.70;99.90;;;;;;5045713;28;20535;-61
2023/01/08 08:35:20;;;;;;;6.30;2.05;;;7.70;99.90;;;;;;5037009;28;20087;-61
2023/01/08 08:37:45;;;;;;;12.45;2.85;;;7.60;99.90;;;;;;5020210;28;20053;-64
2023/01/08 08:40:11;;;;;;;7.88;1.95;;;7.60;99.90;;;;;;5029528;28;20045;-62
2023/01/08 08:42:37;;;;;;;7.32;1.85;;;7.60;99.90;;;;;;5030975;28;20057;-62
2023/01/08 08:45:03;;;;;;;6.53;2.00;;;7.60;99.90;;;;;;5040823;28;20059;-63
2023/01/08 08:47:28;;;;;;;6.40;2.00;;;7.60;99.90;;;;;;5048573;28;20502;-62
2023/01/08 08:49:54;;;;;;;6.10;1.70;;;7.60;99.90;;;;;;5040318;28;20037;-66
2023/01/08 08:52:20;;;;;;;9.40;2.10;;;7.60;99.90;;;;;;5050209;28;20044;-65
2023/01/08 08:54:45;;;;;;;8.88;1.90;;;7.60;99.90;;;;;;5047271;28;20116;-62
2023/01/08 08:57:11;;;;;;;5.82;2.08;;;7.60;99.90;;;;;;5025858;28;20044;-62
2023/01/08 08:59:37;;;;;;;7.63;2.17;;;7.60;99.90;;;;;;5041417;28;20471;-62
2023/01/08 09:02:03;;;;;;;6.05;1.90;;;7.60;99.90;;;;;;5039256;28;20036;-62
2023/01/08 09:04:30;;;;;;;6.10;1.90;;;7.60;99.90;;;;;;5044722;28;20065;-63
2023/01/08 09:06:55;;;;;;;8.07;1.88;;;7.60;99.90;;;;;;5046192;28;20086;-62
2023/01/08 09:09:21;;;;;;;3.05;1.63;;;7.60;99.90;;;;;;5030982;28;20045;-62
2023/01/08 09:11:46;;;;;;;7.60;1.90;;;7.60;99.90;;;;;;5037704;28;20025;-63
2023/01/08 09:14:12;;;;;;;4.63;1.65;;;7.60;99.90;;;;;;5027849;28;20037;-62
2023/01/08 09:16:38;;;;;;;4.78;1.65;;;7.60;99.90;;;;;;5049405;28;20033;-62
2023/01/08 09:19:05;;;;;;;7.55;1.85;;;7.70;99.90;;;;;;5049860;28;20041;-62
2023/01/08 09:21:31;;;;;;;7.95;1.90;;;7.70;99.90;;;;;;5025491;28;20056;-65
2023/01/08 09:23:56;;;;;;;7.45;1.73;;;7.70;99.90;;;;;;5041268;28;20033;-64
2023/01/08 09:26:22;;;;;;;6.78;1.85;;;7.70;99.90;;;;;;5024364;28;20099;-62
2023/01/08 09:28:48;;;;;;;11.25;1.92;;;7.70;99.90;;;;;;5047669;28;20416;-62
2023/01/08 09:31:13;;;;;;;8.10;1.95;;;7.70;99.90;;;;;;5047191;28;20036;-63
2023/01/08 09:33:39;;;;;;;6.35;1.75;;;7.80;99.90;;;;;;5038101;28;20451;-63
2023/01/08 09:36:09;;;;;;;8.60;1.98;;;7.80;99.90;;;;;;5033023;28;20136;-62
2023/01/08 09:38:35;;;;;;;9.68;2.00;;;7.80;99.90;;;;;;5053238;28;20041;-65
2023/01/08 09:41:06;;;;;;;11.55;2.25;;;7.80;99.90;;;;;;5042688;28;20044;-62
2023/01/08 09:43:36;;;;;;;9.15;2.15;;;7.80;99.90;;;;;;5049468;28;20072;-63
2023/01/08 09:46:04;;;;;;;10.30;1.90;;;7.90;99.90;;;;;;5043162;28;20060;-63
2023/01/08 09:48:34;;;;;;;7.25;2.08;;;7.80;99.90;;;;;;5051114;28;20122;-63
2023/01/08 09:51:01;;;;;;;9.35;1.67;;;7.90;99.90;;;;;;5053793;28;20047;-63
2023/01/08 09:53:27;;;;;;;10.90;2.00;;;7.90;99.90;;;;;;5041514;28;20056;-62
2023/01/08 09:55:58;;;;;;;10.20;1.88;;;7.90;99.90;;;;;;5050951;28;20480;-62
2023/01/08 09:58:40;;;;;;;10.95;1.58;;;8.00;99.90;;;;;;5013075;28;20052;-65
2023/01/08 10:01:06;;;;;;;10.05;1.98;;;7.90;99.90;;;;;;5044180;28;20044;-66
2023/01/08 10:03:44;;;;;;;7.07;1.92;;;8.00;99.90;;;;;;5039086;28;20045;-63
2023/01/08 10:06:12;;;;;;;13.63;2.10;;;8.00;99.90;;;;;;5038700;28;20373;-65
2023/01/08 10:08:38;;;;;;;9.25;2.17;;;8.00;99.90;;;;;;5030529;28;20081;-62
2023/01/08 10:11:04;;;;;;;12.10;2.17;;;8.10;99.90;;;;;;5050016;28;20266;-62
2023/01/08 10:13:33;;;;;;;10.52;2.35;;;8.10;99.90;;;;;;5052268;28;20041;-63
2023/01/08 10:15:59;;;;;;;8.90;1.90;;;8.10;99.90;;;;;;5042210;28;20041;-63
2023/01/08 10:18:26;;;;;;;12.10;2.08;;;8.10;99.90;;;;;;5040597;28;20087;-63
2023/01/08 10:20:51;;;;;;;10.25;2.72;;;8.10;99.90;;;;;;5042343;28;20041;-61
2023/01/08 10:23:20;;;;;;;6.82;1.90;;;8.10;99.90;;;;;;5046077;28;20091;-62
2023/01/08 10:25:58;;;;;;;12.57;2.08;;;8.20;99.90;;;;;;5042705;28;20403;-62
2023/01/08 10:28:29;;;;;;;9.88;2.20;;;8.20;99.90;;;;;;5043541;28;20117;-62
2023/01/08 10:31:07;;;;;;;9.07;1.75;;;8.30;99.90;;;;;;5050667;28;20549;-63
2023/01/08 10:33:40;;;;;;;9.82;2.22;;;8.30;99.90;;;;;;5041703;28;20038;-62
2023/01/08 10:36:09;;;;;;;12.15;2.17;;;8.30;99.90;;;;;;5041441;28;20044;-62
2023/01/08 10:38:40;;;;;;;13.23;2.55;;;8.30;99.90;;;;;;5017973;28;20107;-63
2023/01/08 10:41:11;;;;;;;6.93;2.10;;;8.30;99.90;;;;;;5051637;28;20041;-62
2023/01/08 10:43:53;;;;;;;11.23;2.60;;;8.30;99.90;;;;;;5046814;28;20032;-62
2023/01/08 10:46:22;;;;;;;;;;;8.40;99.90;;;;;;5032964;28;20037;-63
2023/01/08 10:48:53;;;;;;;10.88;2.38;;;8.40;99.90;;;;;;5049820;28;19920;-62
2023/01/08 10:51:28;;;;;;;8.63;1.95;;;8.40;99.90;;;;;;5030331;28;20076;-61
2023/01/08 10:53:57;;;;;;;13.15;2.25;;;8.40;99.90;;;;;;5038004;28;20051;-62
2023/01/08 10:56:26;;;;;;;8.88;2.53;;;8.40;99.90;;;;;;5046109;28;20033;-63
2023/01/08 10:58:52;;;;;;;10.25;2.03;;;8.40;99.90;;;;;;5047642;28;20037;-63
2023/01/08 11:01:30;;;;;;;13.93;2.10;;;8.50;99.90;;;;;;5052311;28;20502;-62
2023/01/08 11:04:03;;;;;;;10.98;1.70;;;8.50;99.90;;;;;;5046454;28;20045;-64
2023/01/08 11:06:32;;;;;;;11.43;2.10;;;8.50;99.90;;;;;;5046709;28;20068;-62
2023/01/08 11:09:21;;;;;;;8.07;1.92;;;8.50;99.90;;;;;;5035653;28;20055;-63
2023/01/08 11:11:47;;;;;;;12.45;2.45;;;8.50;99.90;;;;;;5031789;28;20061;-62
2023/01/08 11:14:25;;;;;;;14.15;2.90;;;8.60;99.90;;;;;;5042662;28;20067;-62
2023/01/08 11:16:52;;;;;;;7.90;1.85;;;8.60;99.90;;;;;;5037384;28;20449;-65
2023/01/08 11:19:26;;;;;;;11.73;2.28;;;8.70;99.90;;;;;;5041068;28;20033;-62
2023/01/08 11:22:04;;;;;;;10.93;2.15;;;8.80;99.90;;;;;;5036821;28;20415;-66
2023/01/08 11:24:36;;;;;;;8.15;2.03;;;8.80;99.90;;;;;;5044105;28;20418;-63
2023/01/08 11:27:15;;;;;;;10.15;2.30;;;8.80;99.90;;;;;;5026184;28;20450;-65
2023/01/08 11:30:05;;;;;;;11.20;2.38;;;8.80;99.90;;;;;;5047569;28;20087;-63
2023/01/08 11:32:33;;;;;;;13.30;2.38;;;8.90;99.90;;;;;;5048559;28;20056;-64
2023/01/08 11:35:06;;;;;;;13.38;2.72;;;8.60;99.90;;;;;;5040503;28;20037;-64
2023/01/08 11:37:38;;;;;;;13.65;2.88;;;8.80;99.90;;;;;;5047523;28;20769;-64
2023/01/08 11:40:13;;;;;;;11.10;2.30;;;8.90;99.90;;;;;;5051210;28;20510;-64
2023/01/08 11:43:11;;;;;;;11.55;2.35;;;8.90;99.90;;;;;;5033164;28;20045;-62
2023/01/08 11:45:50;;;;;;;23.33;3.58;;;9.10;99.90;;;;;;5039744;28;20234;-64
2023/01/08 11:48:16;;;;;;;11.57;2.55;;;9.00;99.90;;;;;;5042721;28;20519;-64
2023/01/08 11:51:11;;;;;;;10.10;2.10;;;9.00;99.90;;;;;;5050785;28;20108;-64
2023/01/08 11:53:40;;;;;;;11.27;2.90;;;9.00;99.90;;;;;;5031054;28;20302;-64
2023/01/08 11:56:06;;;;;;;11.63;2.20;;;9.00;99.90;;;;;;5031834;28;20049;-63
2023/01/08 11:58:39;;;;;;;7.75;2.38;;;9.10;99.90;;;;;;5043019;28;20303;-63
2023/01/08 12:01:35;;;;;;;8.65;2.90;;;9.10;99.90;;;;;;5050134;28;20061;-63
2023/01/08 12:04:40;;;;;;;10.10;2.30;;;9.10;99.90;;;;;;5046804;28;20041;-64
2023/01/08 12:07:26;;;;;;;13.95;2.90;;;9.10;99.90;;;;;;5040949;28;20484;-63
2023/01/08 12:10:03;;;;;;;8.43;2.40;;;9.20;99.90;;;;;;5044744;28;20465;-62
2023/01/08 12:12:37;;;;;;;13.95;2.15;;;9.20;99.90;;;;;;5049394;28;20052;-61
2023/01/08 12:15:15;;;;;;;13.55;2.72;;;9.20;99.90;;;;;;5048149;28;20549;-62
2023/01/08 12:18:04;;;;;;;10.18;2.47;;;9.20;99.90;;;;;;5042160;28;20479;-62
2023/01/08 12:20:45;;;;;;;9.82;2.63;;;9.30;99.90;;;;;;5027918;28;20418;-62
2023/01/08 12:23:45;;;;;;;8.95;2.38;;;9.30;99.90;;;;;;5038997;28;20056;-62
2023/01/08 12:26:37;;;;;;;8.10;2.17;;;9.30;99.90;;;;;;5049807;28;20555;-62
2023/01/08 12:29:23;;;;;;;10.27;2.33;;;9.40;99.90;;;;;;5051080;28;20467;-62
2023/01/08 12:32:10;;;;;;;9.57;2.33;;;9.50;99.90;;;;;;5043922;28;20564;-62
2023/01/08 12:34:57;;;;;;;12.00;2.78;;;9.70;99.90;;;;;;5011663;28;20041;-65
2023/01/08 12:37:46;;;;;;;10.25;2.55;;;9.90;99.90;;;;;;5029334;28;20376;-66
2023/01/08 12:40:21;;;;;;;8.50;2.03;;;10.00;99.90;;;;;;5049707;28;20036;-61
2023/01/08 12:42:46;;;;;;;12.45;2.22;;;10.10;99.90;;;;;;5042306;28;20077;-62
2023/01/08 12:45:21;;;;;;;9.02;2.10;;;10.20;99.90;;;;;;5028465;28;20496;-64
2023/01/08 12:47:52;;;;;;;9.50;2.38;;;10.30;99.90;;;;;;5038893;28;20080;-62
2023/01/08 12:50:40;;;;;;;7.95;1.80;;;10.40;99.90;;;;;;5050581;28;20033;-62
2023/01/08 12:53:29;;;;;;;9.73;2.03;;;10.50;99.90;;;;;;5044729;28;20033;-61
2023/01/08 12:56:20;;;;;;;8.68;2.10;;;10.50;99.90;;;;;;5024456;28;20091;-62
2023/01/08 12:59:07;;;;;;;12.45;2.03;;;10.50;99.90;;;;;;5038522;28;20123;-62
2023/01/08 13:01:51;;;;;;;5.85;1.58;;;10.70;99.90;;;;;;5031615;28;20048;-62
2023/01/08 13:04:17;;;;;;;5.80;1.60;;;10.90;99.90;;;;;;5020860;28;20041;-65
2023/01/08 13:06:55;;;;;;;6.47;1.88;;;10.90;99.90;;;;;;5039082;28;20033;-62